Eagle, Alaska
Current Conditions -  °F | °C
As of 12:31 PM on Wednesday 26 Nov 2014 (Local Time) from PAEG Reporting Station
Light Snow Light Snow  
Wind Chill: 13°   Ceiling: 3100
Heat Index: 13°   Visibility: 3mi
Dew Point:   Wind: 0mph
Humidity: 81%   Direction: NA
Pressure: 30.51"   Gusts: NA
Location:  64.78°N, 141.21°W
Report Text: PAEG 262131Z AUTO 00000KT 3SM -SN BKN031 OVC055 M11/M13 A3051 RMK AO2 P0000 T11061133 TSNO
Loading
Personal Weather Stations






























Interactive Weather Map New forecast layout! Learn more

10-Day Weather Forecast

Advertisements
Track Severe Weather on mobile